sensor_id;sensor_type;location;lat;lon;timestamp;temperature;humidity
796;DHT22;381;48.770;9.188;2023-04-03T00:00:29;8.00;95.40
796;DHT22;381;48.770;9.188;2023-04-03T00:05:32;8.00;95.90
796;DHT22;381;48.770;9.188;2023-04-03T00:10:35;8.00;96.30
796;DHT22;381;48.770;9.188;2023-04-03T00:15:38;8.00;96.00
796;DHT22;381;48.770;9.188;2023-04-03T00:20:41;8.00;95.40
796;DHT22;381;48.770;9.188;2023-04-03T00:25:44;8.00;96.00
796;DHT22;381;48.770;9.188;2023-04-03T00:30:46;8.00;95.50
796;DHT22;381;48.770;9.188;2023-04-03T00:35:50;8.10;94.60
796;DHT22;381;48.770;9.188;2023-04-03T00:40:53;8.10;94.60
796;DHT22;381;48.770;9.188;2023-04-03T00:45:56;8.10;93.90
796;DHT22;381;48.770;9.188;2023-04-03T00:50:59;8.00;94.40
796;DHT22;381;48.770;9.188;2023-04-03T00:56:06;8.00;94.30
796;DHT22;381;48.770;9.188;2023-04-03T01:01:15;7.90;95.40
796;DHT22;381;48.770;9.188;2023-04-03T01:06:21;7.90;93.80
796;DHT22;381;48.770;9.188;2023-04-03T01:11:26;7.90;95.50
796;DHT22;381;48.770;9.188;2023-04-03T01:16:29;8.00;94.60
796;DHT22;381;48.770;9.188;2023-04-03T01:21:54;7.90;94.70
796;DHT22;381;48.770;9.188;2023-04-03T01:27:01;7.90;95.80
796;DHT22;381;48.770;9.188;2023-04-03T01:32:06;7.90;95.70
796;DHT22;381;48.770;9.188;2023-04-03T01:37:08;7.90;94.90
796;DHT22;381;48.770;9.188;2023-04-03T01:42:10;7.90;95.70
796;DHT22;381;48.770;9.188;2023-04-03T01:47:17;7.90;96.40
796;DHT22;381;48.770;9.188;2023-04-03T01:52:20;7.80;95.10
796;DHT22;381;48.770;9.188;2023-04-03T01:57:22;7.90;94.30
796;DHT22;381;48.770;9.188;2023-04-03T02:02:25;7.80;95.10
796;DHT22;381;48.770;9.188;2023-04-03T02:07:27;7.80;95.00
796;DHT22;381;48.770;9.188;2023-04-03T02:12:30;7.80;94.30
796;DHT22;381;48.770;9.188;2023-04-03T02:17:35;7.80;95.20
796;DHT22;381;48.770;9.188;2023-04-03T02:22:37;7.80;93.60
796;DHT22;381;48.770;9.188;2023-04-03T02:27:39;7.80;94.20
796;DHT22;381;48.770;9.188;2023-04-03T02:32:43;7.80;95.40
796;DHT22;381;48.770;9.188;2023-04-03T02:37:45;7.80;93.40
796;DHT22;381;48.770;9.188;2023-04-03T02:42:48;7.80;94.60
796;DHT22;381;48.770;9.188;2023-04-03T02:47:51;7.80;94.30
796;DHT22;381;48.770;9.188;2023-04-03T02:52:54;7.80;94.00
796;DHT22;381;48.770;9.188;2023-04-03T02:57:56;7.80;93.60
796;DHT22;381;48.770;9.188;2023-04-03T03:03:00;7.80;94.70
796;DHT22;381;48.770;9.188;2023-04-03T03:08:02;7.80;94.00
796;DHT22;381;48.770;9.188;2023-04-03T03:13:04;7.80;94.30
796;DHT22;381;48.770;9.188;2023-04-03T03:18:07;7.80;93.00
796;DHT22;381;48.770;9.188;2023-04-03T03:23:10;7.70;94.70
796;DHT22;381;48.770;9.188;2023-04-03T03:28:15;7.70;94.20
796;DHT22;381;48.770;9.188;2023-04-03T03:33:19;7.80;92.00
796;DHT22;381;48.770;9.188;2023-04-03T03:38:21;7.70;93.00
796;DHT22;381;48.770;9.188;2023-04-03T03:43:24;7.70;92.40
796;DHT22;381;48.770;9.188;2023-04-03T03:48:29;7.70;94.10
796;DHT22;381;48.770;9.188;2023-04-03T03:53:31;7.80;93.80
796;DHT22;381;48.770;9.188;2023-04-03T03:58:38;7.80;92.60
796;DHT22;381;48.770;9.188;2023-04-03T04:03:42;7.70;94.70
796;DHT22;381;48.770;9.188;2023-04-03T04:08:48;7.70;93.60
796;DHT22;381;48.770;9.188;2023-04-03T04:13:50;7.80;93.50
796;DHT22;381;48.770;9.188;2023-04-03T04:18:56;7.80;93.70
796;DHT22;381;48.770;9.188;2023-04-03T04:23:59;7.80;92.10
796;DHT22;381;48.770;9.188;2023-04-03T04:29:02;7.80;93.20
796;DHT22;381;48.770;9.188;2023-04-03T04:34:08;7.80;92.60
796;DHT22;381;48.770;9.188;2023-04-03T04:39:12;7.80;93.40
796;DHT22;381;48.770;9.188;2023-04-03T04:44:15;7.90;93.20
796;DHT22;381;48.770;9.188;2023-04-03T04:49:19;7.90;93.30
796;DHT22;381;48.770;9.188;2023-04-03T04:54:21;7.90;92.10
796;DHT22;381;48.770;9.188;2023-04-03T04:59:24;7.90;92.90
796;DHT22;381;48.770;9.188;2023-04-03T05:04:31;7.90;92.80
796;DHT22;381;48.770;9.188;2023-04-03T05:09:40;7.90;93.00
796;DHT22;381;48.770;9.188;2023-04-03T05:14:44;7.90;93.60
796;DHT22;381;48.770;9.188;2023-04-03T05:19:47;8.00;93.20
796;DHT22;381;48.770;9.188;2023-04-03T05:24:51;8.00;92.20
796;DHT22;381;48.770;9.188;2023-04-03T05:29:55;8.00;91.50
796;DHT22;381;48.770;9.188;2023-04-03T05:34:59;8.00;91.00
796;DHT22;381;48.770;9.188;2023-04-03T05:40:03;8.00;91.60
796;DHT22;381;48.770;9.188;2023-04-03T05:45:06;8.00;90.00
796;DHT22;381;48.770;9.188;2023-04-03T05:50:10;7.90;90.40
796;DHT22;381;48.770;9.188;2023-04-03T05:55:12;7.80;91.20
796;DHT22;381;48.770;9.188;2023-04-03T06:00:16;7.80;89.60
796;DHT22;381;48.770;9.188;2023-04-03T06:05:26;7.80;91.30
796;DHT22;381;48.770;9.188;2023-04-03T06:10:29;7.80;88.90
796;DHT22;381;48.770;9.188;2023-04-03T06:15:31;7.70;90.80
796;DHT22;381;48.770;9.188;2023-04-03T06:20:35;7.80;90.60
796;DHT22;381;48.770;9.188;2023-04-03T06:25:38;7.80;91.40
796;DHT22;381;48.770;9.188;2023-04-03T06:30:40;7.90;86.80
796;DHT22;381;48.770;9.188;2023-04-03T06:35:43;7.90;88.70
796;DHT22;381;48.770;9.188;2023-04-03T06:40:46;7.90;91.00
796;DHT22;381;48.770;9.188;2023-04-03T06:45:48;8.00;90.90
796;DHT22;381;48.770;9.188;2023-04-03T06:50:53;8.10;89.00
796;DHT22;381;48.770;9.188;2023-04-03T06:55:55;8.10;89.80
796;DHT22;381;48.770;9.188;2023-04-03T07:00:57;8.10;89.10
796;DHT22;381;48.770;9.188;2023-04-03T07:06:01;8.20;88.50
796;DHT22;381;48.770;9.188;2023-04-03T07:11:03;8.30;90.50
796;DHT22;381;48.770;9.188;2023-04-03T07:16:06;8.40;91.40
796;DHT22;381;48.770;9.188;2023-04-03T07:21:10;8.60;90.50
796;DHT22;381;48.770;9.188;2023-04-03T07:26:12;8.60;90.80
796;DHT22;381;48.770;9.188;2023-04-03T07:31:15;8.70;88.60
796;DHT22;381;48.770;9.188;2023-04-03T07:36:21;8.70;89.10
796;DHT22;381;48.770;9.188;2023-04-03T07:41:23;8.80;90.00
796;DHT22;381;48.770;9.188;2023-04-03T07:46:25;8.90;89.20
796;DHT22;381;48.770;9.188;2023-04-03T07:51:29;9.10;90.00
796;DHT22;381;48.770;9.188;2023-04-03T07:56:31;9.20;90.60
796;DHT22;381;48.770;9.188;2023-04-03T08:01:34;9.40;87.70
796;DHT22;381;48.770;9.188;2023-04-03T08:06:37;9.50;85.90
796;DHT22;381;48.770;9.188;2023-04-03T08:11:39;9.50;87.50
796;DHT22;381;48.770;9.188;2023-04-03T08:16:42;9.60;88.50
796;DHT22;381;48.770;9.188;2023-04-03T08:21:46;9.60;86.80
796;DHT22;381;48.770;9.188;2023-04-03T08:26:48;9.70;85.10
796;DHT22;381;48.770;9.188;2023-04-03T08:31:51;9.60;87.20
796;DHT22;381;48.770;9.188;2023-04-03T08:36:54;9.60;88.50
796;DHT22;381;48.770;9.188;2023-04-03T08:41:58;9.60;89.60
796;DHT22;381;48.770;9.188;2023-04-03T08:47:09;9.60;85.50
796;DHT22;381;48.770;9.188;2023-04-03T08:52:17;9.60;85.80
796;DHT22;381;48.770;9.188;2023-04-03T08:57:30;9.60;88.60
796;DHT22;381;48.770;9.188;2023-04-03T09:02:37;9.70;84.30
796;DHT22;381;48.770;9.188;2023-04-03T09:07:47;9.70;87.10
796;DHT22;381;48.770;9.188;2023-04-03T09:12:57;9.70;84.90
796;DHT22;381;48.770;9.188;2023-04-03T09:18:05;9.70;86.10
796;DHT22;381;48.770;9.188;2023-04-03T09:23:20;9.80;86.60
796;DHT22;381;48.770;9.188;2023-04-03T09:28:24;9.90;85.30
796;DHT22;381;48.770;9.188;2023-04-03T09:33:27;9.90;87.00
796;DHT22;381;48.770;9.188;2023-04-03T09:38:32;9.90;85.90
796;DHT22;381;48.770;9.188;2023-04-03T09:43:37;10.00;84.40
796;DHT22;381;48.770;9.188;2023-04-03T09:48:50;10.00;83.70
796;DHT22;381;48.770;9.188;2023-04-03T09:53:53;9.90;85.10
796;DHT22;381;48.770;9.188;2023-04-03T09:59:12;9.90;85.70
796;DHT22;381;48.770;9.188;2023-04-03T10:04:18;9.90;84.80
796;DHT22;381;48.770;9.188;2023-04-03T10:09:27;9.80;84.30
796;DHT22;381;48.770;9.188;2023-04-03T10:14:29;9.80;82.90
796;DHT22;381;48.770;9.188;2023-04-03T10:19:34;9.80;80.50
796;DHT22;381;48.770;9.188;2023-04-03T10:24:48;9.70;83.30
796;DHT22;381;48.770;9.188;2023-04-03T10:29:57;9.80;84.90
796;DHT22;381;48.770;9.188;2023-04-03T10:35:08;10.00;85.20
796;DHT22;381;48.770;9.188;2023-04-03T10:40:23;10.10;78.50
796;DHT22;381;48.770;9.188;2023-04-03T10:45:28;9.90;83.70
796;DHT22;381;48.770;9.188;2023-04-03T10:50:44;9.90;82.70
796;DHT22;381;48.770;9.188;2023-04-03T10:55:53;9.90;82.50
796;DHT22;381;48.770;9.188;2023-04-03T11:01:05;10.00;80.50
796;DHT22;381;48.770;9.188;2023-04-03T11:06:11;10.00;78.70
796;DHT22;381;48.770;9.188;2023-04-03T11:11:17;9.80;82.00
796;DHT22;381;48.770;9.188;2023-04-03T11:16:26;9.70;84.60
796;DHT22;381;48.770;9.188;2023-04-03T11:21:32;9.90;79.10
796;DHT22;381;48.770;9.188;2023-04-03T11:26:43;10.10;77.00
796;DHT22;381;48.770;9.188;2023-04-03T11:32:02;10.00;78.50
796;DHT22;381;48.770;9.188;2023-04-03T11:37:13;10.10;77.40
796;DHT22;381;48.770;9.188;2023-04-03T11:42:33;10.10;80.20
796;DHT22;381;48.770;9.188;2023-04-03T11:47:45;10.10;79.20
796;DHT22;381;48.770;9.188;2023-04-03T11:52:59;10.20;74.20
796;DHT22;381;48.770;9.188;2023-04-03T11:58:11;10.10;78.70
796;DHT22;381;48.770;9.188;2023-04-03T12:03:32;10.10;77.30
796;DHT22;381;48.770;9.188;2023-04-03T12:08:45;10.20;76.90
796;DHT22;381;48.770;9.188;2023-04-03T12:14:04;10.20;75.60
796;DHT22;381;48.770;9.188;2023-04-03T12:19:30;10.20;73.90
796;DHT22;381;48.770;9.188;2023-04-03T12:24:34;10.20;75.90
796;DHT22;381;48.770;9.188;2023-04-03T12:29:43;10.20;73.30
796;DHT22;381;48.770;9.188;2023-04-03T12:34:58;10.20;75.00
796;DHT22;381;48.770;9.188;2023-04-03T12:40:10;10.20;74.10
796;DHT22;381;48.770;9.188;2023-04-03T12:45:20;10.20;75.30
796;DHT22;381;48.770;9.188;2023-04-03T12:50:24;10.20;79.00
796;DHT22;381;48.770;9.188;2023-04-03T12:55:26;10.30;76.70
796;DHT22;381;48.770;9.188;2023-04-03T13:00:32;10.40;75.60
796;DHT22;381;48.770;9.188;2023-04-03T13:05:35;10.50;74.60
796;DHT22;381;48.770;9.188;2023-04-03T13:10:46;10.60;73.30
796;DHT22;381;48.770;9.188;2023-04-03T13:15:51;10.80;75.20
796;DHT22;381;48.770;9.188;2023-04-03T13:20:57;10.90;71.00
796;DHT22;381;48.770;9.188;2023-04-03T13:26:00;10.90;69.50
796;DHT22;381;48.770;9.188;2023-04-03T13:31:08;10.90;68.80
796;DHT22;381;48.770;9.188;2023-04-03T13:36:21;10.80;66.60
796;DHT22;381;48.770;9.188;2023-04-03T13:41:25;10.70;70.50
796;DHT22;381;48.770;9.188;2023-04-03T13:46:29;10.70;69.90
796;DHT22;381;48.770;9.188;2023-04-03T13:51:31;10.60;71.10
796;DHT22;381;48.770;9.188;2023-04-03T13:56:35;10.70;72.70
796;DHT22;381;48.770;9.188;2023-04-03T14:01:43;10.80;69.90
796;DHT22;381;48.770;9.188;2023-04-03T14:06:46;10.90;68.50
796;DHT22;381;48.770;9.188;2023-04-03T14:11:50;11.00;68.40
796;DHT22;381;48.770;9.188;2023-04-03T14:16:58;11.00;69.40
796;DHT22;381;48.770;9.188;2023-04-03T14:22:07;10.90;66.90
796;DHT22;381;48.770;9.188;2023-04-03T14:27:18;10.90;69.00
796;DHT22;381;48.770;9.188;2023-04-03T14:32:23;10.80;69.30
796;DHT22;381;48.770;9.188;2023-04-03T14:37:29;10.70;68.30
796;DHT22;381;48.770;9.188;2023-04-03T14:42:33;10.40;68.70
796;DHT22;381;48.770;9.188;2023-04-03T14:47:42;10.40;70.30
796;DHT22;381;48.770;9.188;2023-04-03T14:52:46;10.60;67.00
796;DHT22;381;48.770;9.188;2023-04-03T14:57:48;10.70;65.80
796;DHT22;381;48.770;9.188;2023-04-03T15:02:54;10.70;67.20
796;DHT22;381;48.770;9.188;2023-04-03T15:07:57;10.60;65.20
796;DHT22;381;48.770;9.188;2023-04-03T15:13:01;10.60;66.20
796;DHT22;381;48.770;9.188;2023-04-03T15:18:05;10.50;67.10
796;DHT22;381;48.770;9.188;2023-04-03T15:23:09;10.50;66.70
796;DHT22;381;48.770;9.188;2023-04-03T15:28:18;10.40;67.80
796;DHT22;381;48.770;9.188;2023-04-03T15:33:22;10.40;65.80
796;DHT22;381;48.770;9.188;2023-04-03T15:38:24;10.40;59.90
796;DHT22;381;48.770;9.188;2023-04-03T15:43:27;10.20;62.20
796;DHT22;381;48.770;9.188;2023-04-03T15:48:30;9.90;66.10
796;DHT22;381;48.770;9.188;2023-04-03T15:53:35;9.80;68.40
796;DHT22;381;48.770;9.188;2023-04-03T15:58:37;9.70;70.60
796;DHT22;381;48.770;9.188;2023-04-03T16:03:42;9.70;67.80
796;DHT22;381;48.770;9.188;2023-04-03T16:08:46;9.70;71.20
796;DHT22;381;48.770;9.188;2023-04-03T16:13:49;9.70;69.40
796;DHT22;381;48.770;9.188;2023-04-03T16:18:55;9.90;64.20
796;DHT22;381;48.770;9.188;2023-04-03T16:23:58;9.90;65.50
796;DHT22;381;48.770;9.188;2023-04-03T16:29:01;9.80;63.70
796;DHT22;381;48.770;9.188;2023-04-03T16:34:04;9.60;67.90
796;DHT22;381;48.770;9.188;2023-04-03T16:39:06;9.60;66.30
796;DHT22;381;48.770;9.188;2023-04-03T16:44:10;9.60;63.10
796;DHT22;381;48.770;9.188;2023-04-03T16:49:13;9.50;67.60
796;DHT22;381;48.770;9.188;2023-04-03T16:54:15;9.50;64.50
796;DHT22;381;48.770;9.188;2023-04-03T16:59:18;9.60;61.90
796;DHT22;381;48.770;9.188;2023-04-03T17:04:21;9.50;67.10
796;DHT22;381;48.770;9.188;2023-04-03T17:09:23;9.60;61.70
796;DHT22;381;48.770;9.188;2023-04-03T17:14:25;9.50;67.00
796;DHT22;381;48.770;9.188;2023-04-03T17:19:29;9.60;65.60
796;DHT22;381;48.770;9.188;2023-04-03T17:24:31;9.70;66.20
796;DHT22;381;48.770;9.188;2023-04-03T17:29:34;9.70;63.80
796;DHT22;381;48.770;9.188;2023-04-03T17:34:37;9.60;61.90
796;DHT22;381;48.770;9.188;2023-04-03T17:39:39;9.50;64.30
796;DHT22;381;48.770;9.188;2023-04-03T17:44:42;9.30;66.60
796;DHT22;381;48.770;9.188;2023-04-03T17:49:46;9.30;66.80
796;DHT22;381;48.770;9.188;2023-04-03T17:54:48;9.20;67.70
796;DHT22;381;48.770;9.188;2023-04-03T17:59:50;9.20;68.30
796;DHT22;381;48.770;9.188;2023-04-03T18:04:55;9.20;67.50
796;DHT22;381;48.770;9.188;2023-04-03T18:09:58;9.10;69.40
796;DHT22;381;48.770;9.188;2023-04-03T18:15:02;9.10;70.80
796;DHT22;381;48.770;9.188;2023-04-03T18:20:07;9.10;67.30
796;DHT22;381;48.770;9.188;2023-04-03T18:25:11;9.10;67.80
796;DHT22;381;48.770;9.188;2023-04-03T18:30:17;9.10;68.00
796;DHT22;381;48.770;9.188;2023-04-03T18:35:20;9.10;68.10
796;DHT22;381;48.770;9.188;2023-04-03T18:40:26;9.00;67.80
796;DHT22;381;48.770;9.188;2023-04-03T18:45:28;9.00;66.90
796;DHT22;381;48.770;9.188;2023-04-03T18:50:33;8.90;67.40
796;DHT22;381;48.770;9.188;2023-04-03T18:55:35;8.80;67.50
796;DHT22;381;48.770;9.188;2023-04-03T19:00:38;8.70;68.40
796;DHT22;381;48.770;9.188;2023-04-03T19:05:42;8.60;71.80
796;DHT22;381;48.770;9.188;2023-04-03T19:10:45;8.60;69.00
796;DHT22;381;48.770;9.188;2023-04-03T19:15:47;8.50;71.30
796;DHT22;381;48.770;9.188;2023-04-03T19:20:53;8.40;71.30
796;DHT22;381;48.770;9.188;2023-04-03T19:25:57;8.40;71.30
796;DHT22;381;48.770;9.188;2023-04-03T19:31:00;8.40;71.30
796;DHT22;381;48.770;9.188;2023-04-03T19:36:05;8.40;70.00
796;DHT22;381;48.770;9.188;2023-04-03T19:41:09;8.40;69.00
796;DHT22;381;48.770;9.188;2023-04-03T19:46:12;8.40;70.30
796;DHT22;381;48.770;9.188;2023-04-03T19:51:16;8.40;69.80
796;DHT22;381;48.770;9.188;2023-04-03T19:56:18;8.40;71.70
796;DHT22;381;48.770;9.188;2023-04-03T20:01:23;8.30;70.50
796;DHT22;381;48.770;9.188;2023-04-03T20:06:28;8.30;72.40
796;DHT22;381;48.770;9.188;2023-04-03T20:11:33;8.30;69.90
796;DHT22;381;48.770;9.188;2023-04-03T20:16:35;8.20;70.40
796;DHT22;381;48.770;9.188;2023-04-03T20:21:39;8.10;68.90
796;DHT22;381;48.770;9.188;2023-04-03T20:26:41;8.00;67.40
796;DHT22;381;48.770;9.188;2023-04-03T20:31:46;7.90;71.00
796;DHT22;381;48.770;9.188;2023-04-03T20:36:49;7.80;67.40
796;DHT22;381;48.770;9.188;2023-04-03T20:41:52;7.70;70.50
796;DHT22;381;48.770;9.188;2023-04-03T20:46:54;7.70;68.50
796;DHT22;381;48.770;9.188;2023-04-03T20:51:59;7.60;71.00
796;DHT22;381;48.770;9.188;2023-04-03T20:57:01;7.50;70.60
796;DHT22;381;48.770;9.188;2023-04-03T21:02:03;7.40;73.10
796;DHT22;381;48.770;9.188;2023-04-03T21:19:06;7.30;72.30
796;DHT22;381;48.770;9.188;2023-04-03T21:24:11;7.20;72.50
796;DHT22;381;48.770;9.188;2023-04-03T21:29:14;7.20;72.80
796;DHT22;381;48.770;9.188;2023-04-03T21:34:18;7.10;72.90
796;DHT22;381;48.770;9.188;2023-04-03T21:39:21;7.20;74.00
796;DHT22;381;48.770;9.188;2023-04-03T21:44:24;7.10;71.90
796;DHT22;381;48.770;9.188;2023-04-03T21:49:28;7.10;72.10
796;DHT22;381;48.770;9.188;2023-04-03T21:54:30;7.00;72.30
796;DHT22;381;48.770;9.188;2023-04-03T21:59:33;7.00;71.60
796;DHT22;381;48.770;9.188;2023-04-03T22:04:36;6.90;74.60
796;DHT22;381;48.770;9.188;2023-04-03T22:09:39;6.80;71.80
796;DHT22;381;48.770;9.188;2023-04-03T22:14:41;6.70;73.00
796;DHT22;381;48.770;9.188;2023-04-03T22:19:44;6.70;72.90
796;DHT22;381;48.770;9.188;2023-04-03T22:24:46;6.60;73.90
796;DHT22;381;48.770;9.188;2023-04-03T22:29:48;6.60;73.80
796;DHT22;381;48.770;9.188;2023-04-03T22:34:52;6.60;73.60
796;DHT22;381;48.770;9.188;2023-04-03T22:39:54;6.60;71.20
796;DHT22;381;48.770;9.188;2023-04-03T22:44:57;6.50;74.40
796;DHT22;381;48.770;9.188;2023-04-03T22:50:00;6.50;74.40
796;DHT22;381;48.770;9.188;2023-04-03T22:55:03;6.50;74.10
796;DHT22;381;48.770;9.188;2023-04-03T23:00:07;6.40;74.30
796;DHT22;381;48.770;9.188;2023-04-03T23:05:11;6.40;73.50
796;DHT22;381;48.770;9.188;2023-04-03T23:10:13;6.40;74.70
796;DHT22;381;48.770;9.188;2023-04-03T23:15:15;6.30;74.60
796;DHT22;381;48.770;9.188;2023-04-03T23:20:20;6.30;75.00
796;DHT22;381;48.770;9.188;2023-04-03T23:25:22;6.30;76.70
796;DHT22;381;48.770;9.188;2023-04-03T23:30:24;6.20;75.50
796;DHT22;381;48.770;9.188;2023-04-03T23:35:28;6.20;75.00
796;DHT22;381;48.770;9.188;2023-04-03T23:40:30;6.20;75.60
796;DHT22;381;48.770;9.188;2023-04-03T23:45:32;6.10;75.20
796;DHT22;381;48.770;9.188;2023-04-03T23:50:35;5.90;72.60
796;DHT22;381;48.770;9.188;2023-04-03T23:55:37;5.70;75.60
